Valor — WDD8691 — position and weather

sailwx.info

Track history (hours):
 
Tides and Currents Weather Stations Pressure Air Temp Water Temp Dewpoint Dewpoint Depression Visibility Wind Speed Wind Dir Waves Ship Positions

Valor

Owner: Crowley Marine Services, Seattle, WA. More information available from US FCC via Universal Licensing System and Coast Guard Vessel Documentation Center.

Last reported at 2018-Feb-23 17:30 UTC. Time now 2018-Feb-23 17:57 UTC.
Position N 37°54' W 122°23'.

Length 8 m; draft 5.5 m.

Type: Tug. MMSI: 367301480.

Date/timePositionNaut miles runAvg speedWind from/ knotsBaromVisibWave heightAir tempDewpointWater temp
2018-Feb-23 17:30N 37°54' W 122°23'1 2.4
2018-Feb-23 17:01N 37°55' W 122°22'0 1.0
2018-Feb-23 16:30N 37°54' W 122°22'3 6.2
2018-Feb-23 16:00N 37°55' W 122°25'4 8.7
2018-Feb-23 15:30N 37°51' W 122°25'4 8.5
2018-Feb-23 15:01N 37°49' W 122°30'1 2.2
2018-Feb-23 14:30N 37°49' W 122°31'0 0.4
2018-Feb-23 14:00N 37°49' W 122°31'3 5.7
2018-Feb-23 13:31N 37°49' W 122°28'3 6.1
2018-Feb-23 13:00N 37°48' W 122°24'0 0.0
2018-Feb-23 12:30N 37°48' W 122°24'0 0.0
2018-Feb-23 12:00N 37°48' W 122°24'0 0.0
2018-Feb-23 11:30N 37°48' W 122°24'0 0.0
2018-Feb-23 11:01N 37°48' W 122°24'0 0.0
2018-Feb-23 10:31N 37°48' W 122°24'0 0.0
2018-Feb-23 10:00N 37°48' W 122°24'0 0.0
2018-Feb-23 09:31N 37°48' W 122°24'3 5.5
2018-Feb-23 09:00N 37°51' W 122°24'5 9.0
2018-Feb-23 08:30N 37°55' W 122°25'1 1.2
2018-Feb-23 08:01N 37°55' W 122°25'0 0.0
2018-Feb-23 07:30N 37°55' W 122°25'0 0.2
2018-Feb-23 07:01N 37°55' W 122°25'0 0.0
2018-Feb-23 06:31N 37°55' W 122°25'0 0.0
2018-Feb-23 06:01N 37°55' W 122°25'0 0.0
2018-Feb-23 05:30N 37°55' W 122°25'0 0.0
2018-Feb-23 05:01N 37°55' W 122°25'0 0.0
2018-Feb-23 04:30N 37°55' W 122°25'0 0.0
2018-Feb-23 04:00N 37°55' W 122°25'0 0.0
2018-Feb-23 03:30N 37°55' W 122°25'0 0.0
2018-Feb-23 03:00N 37°55' W 122°25'0 0.0
2018-Feb-23 02:30N 37°55' W 122°25'0 0.0
2018-Feb-23 02:01N 37°55' W 122°25'0 0.0
2018-Feb-23 01:30N 37°55' W 122°25'0 0.0
2018-Feb-23 01:00N 37°55' W 122°25'0 0.0
2018-Feb-23 00:30N 37°55' W 122°25'1 1.5
2018-Feb-23 00:01N 37°55' W 122°25'1 1.4
2018-Feb-22 23:30N 37°56' W 122°25'0 0.3
2018-Feb-22 23:00N 37°55' W 122°25'0 0.8
2018-Feb-22 22:30N 37°55' W 122°25'0 0.0
2018-Feb-22 22:00N 37°55' W 122°25'0 0.0
2018-Feb-22 21:31N 37°55' W 122°25'2 4.4
2018-Feb-22 21:00N 37°55' W 122°22'0 0.3
2018-Feb-22 20:30N 37°55' W 122°22'0 0.6
2018-Feb-22 20:00N 37°55' W 122°22'2 3.7
2018-Feb-22 19:30N 37°54' W 122°24'0 0.6
2018-Feb-22 19:01N 37°55' W 122°24'2 4.1
2018-Feb-22 18:30N 37°55' W 122°22'0 0.0
2018-Feb-22 18:01N 37°55' W 122°22'0 0.0
2018-Feb-22 17:31N 37°55' W 122°22'0 0.0
2018-Feb-22 17:01N 37°55' W 122°22'0 0.1
2018-Feb-22 16:31N 37°55' W 122°22'0 0.1
2018-Feb-22 16:01N 37°55' W 122°22'0 0.1
2018-Feb-22 15:30N 37°55' W 122°22'0 0.0
2018-Feb-22 15:00N 37°55' W 122°22'0 0.0
2018-Feb-22 14:31N 37°55' W 122°22'0 0.0
2018-Feb-22 14:00N 37°55' W 122°22'0 0.1
2018-Feb-22 13:30N 37°55' W 122°22'0 0.0
2018-Feb-22 13:00N 37°55' W 122°22'0 0.0
2018-Feb-22 12:31N 37°55' W 122°22'3 5.4
2018-Feb-22 12:00N 37°56' W 122°25'0 0.0
2018-Feb-22 11:31N 37°56' W 122°25'1 1.2
2018-Feb-22 11:01N 37°55' W 122°25'1 2.9
2018-Feb-22 10:30N 37°54' W 122°25'3 5.7
2018-Feb-22 10:00N 37°55' W 122°22'0 0.0
2018-Feb-22 09:30N 37°55' W 122°22'0 0.0
2018-Feb-22 09:01N 37°55' W 122°22'0 0.0
2018-Feb-22 08:31N 37°55' W 122°22'0 0.0
2018-Feb-22 08:00N 37°55' W 122°22'0 0.0
2018-Feb-22 07:30N 37°55' W 122°22'0 0.0
2018-Feb-22 07:00N 37°55' W 122°22'0 0.1
2018-Feb-22 06:31N 37°55' W 122°22'0 0.1
2018-Feb-22 06:00N 37°55' W 122°22'0 0.0
2018-Feb-22 05:30N 37°55' W 122°22'0 0.0
2018-Feb-22 05:01N 37°55' W 122°22'0 0.0
2018-Feb-22 04:30N 37°55' W 122°22'0 0.0
2018-Feb-22 04:01N 37°55' W 122°22'0 0.5
2018-Feb-22 03:30N 37°54' W 122°22'1 1.9
2018-Feb-22 03:00N 37°54' W 122°23'2 4.2
2018-Feb-22 02:31N 37°53' W 122°25'0 0.8
2018-Feb-22 02:00N 37°53' W 122°25'3 6.6
2018-Feb-22 01:30N 37°57' W 122°26'4 8.0
2018-Feb-22 01:00N 38°00' W 122°24'4 7.2
2018-Feb-22 00:30N 38°03' W 122°20'4 2.4
2018-Feb-21 23:04N 38°03' W 122°16'0 0.3
2018-Feb-21 22:49N 38°03' W 122°16'2 5.0
2018-Feb-21 22:27N 38°03' W 122°18'4 7.1
2018-Feb-21 21:55N 38°02' W 122°22'3 6.3
2018-Feb-21 21:30N 38°00' W 122°25'4 7.3
2018-Feb-21 21:00N 37°57' W 122°27'5 9.8
2018-Feb-21 20:30N 37°52' W 122°25'510.6
2018-Feb-21 20:01N 37°47' W 122°23'2 4.8
2018-Feb-21 19:30N 37°45' W 122°21'0 0.2
2018-Feb-21 19:00N 37°45' W 122°21'4 7.5
2018-Feb-21 18:30N 37°48' W 122°24'0 0.3
2018-Feb-21 18:01N 37°48' W 122°24'0 0.0
2018-Feb-21 17:31N 37°48' W 122°24'0 0.0
2018-Feb-21 17:01N 37°48' W 122°24'0 0.0
2018-Feb-21 16:30N 37°48' W 122°24'0 0.0
2018-Feb-21 16:00N 37°48' W 122°24'0 0.0
2018-Feb-21 15:31N 37°48' W 122°24'0 0.0
2018-Feb-21 15:00N 37°48' W 122°24'0 0.0
2018-Feb-21 14:30N 37°48' W 122°24'0 0.0
2018-Feb-21 14:01N 37°48' W 122°24'0 0.0
2018-Feb-21 13:31N 37°48' W 122°24'0 0.0
2018-Feb-21 13:01N 37°48' W 122°24'0 0.0
2018-Feb-21 12:30N 37°48' W 122°24'0 0.0
2018-Feb-21 12:00N 37°48' W 122°24'0 0.0
2018-Feb-21 11:31N 37°48' W 122°24'0 0.0
2018-Feb-21 11:01N 37°48' W 122°24'0 0.0
2018-Feb-21 10:30N 37°48' W 122°24'2 4.3
2018-Feb-21 10:00N 37°47' W 122°21'3 6.6
2018-Feb-21 09:31N 37°49' W 122°25'4 8.5
2018-Feb-21 09:00N 37°48' W 122°30'1 1.2
2018-Feb-21 08:30N 37°48' W 122°30'2 4.1
2018-Feb-21 08:00N 37°49' W 122°27'3 5.3
2018-Feb-21 07:30N 37°48' W 122°24'0 0.0
2018-Feb-21 07:00N 37°48' W 122°24'0 0.0
2018-Feb-21 06:30N 37°48' W 122°24'0 0.0
2018-Feb-21 06:00N 37°48' W 122°24'0 0.0
2018-Feb-21 05:30N 37°48' W 122°24'0 0.0
2018-Feb-21 05:00N 37°48' W 122°24'0 0.0
2018-Feb-21 04:30N 37°48' W 122°24'0 0.0
2018-Feb-21 04:00N 37°48' W 122°24'0 0.0
2018-Feb-21 03:30N 37°48' W 122°24'0 0.0
2018-Feb-21 03:00N 37°48' W 122°24'0 0.0
2018-Feb-21 02:30N 37°48' W 122°24'0 0.0
2018-Feb-21 02:00N 37°48' W 122°24'0 0.0
2018-Feb-21 01:30N 37°48' W 122°24'4 7.9
2018-Feb-21 01:00N 37°52' W 122°25'5 9.2
2018-Feb-21 00:30N 37°57' W 122°26'4 8.6
2018-Feb-21 00:00N 38°01' W 122°24'4 8.2
2018-Feb-20 23:30N 38°03' W 122°19'3 2.3
2018-Feb-20 22:14N 38°03' W 122°16'1 3.9
2018-Feb-20 21:54N 38°03' W 122°17'1 3.6
2018-Feb-20 21:30N 38°03' W 122°19'4 7.8
2018-Feb-20 20:58N 38°01' W 122°24'4 9.3
2018-Feb-20 20:30N 37°57' W 122°26'5 9.4
2018-Feb-20 20:00N 37°52' W 122°24'4 7.5
2018-Feb-20 19:30N 37°49' W 122°24'0 0.9
2018-Feb-20 19:00N 37°48' W 122°24'0 0.0
2018-Feb-20 18:30N 37°48' W 122°24'0 0.0
2018-Feb-20 18:00N 37°48' W 122°24'0 0.0
2018-Feb-20 17:30N 37°48' W 122°24'0 0.0
2018-Feb-20 17:00N 37°48' W 122°24'0 0.0
2018-Feb-20 16:30N 37°48' W 122°24'0 0.0
2018-Feb-20 16:00N 37°48' W 122°24'0 0.0
2018-Feb-20 15:30N 37°48' W 122°24'0 0.0
2018-Feb-20 15:00N 37°48' W 122°24'4 7.1
2018-Feb-20 14:30N 37°48' W 122°19'1 1.2
2018-Feb-20 14:00N 37°48' W 122°19'2 4.1
2018-Feb-20 13:30N 37°48' W 122°21'2 4.2
2018-Feb-20 13:00N 37°48' W 122°24'0 0.0
2018-Feb-20 12:30N 37°48' W 122°24'0 0.0
2018-Feb-20 12:00N 37°48' W 122°24'0 0.0
2018-Feb-20 11:30N 37°48' W 122°24'0 0.0
2018-Feb-20 11:00N 37°48' W 122°24'0 0.0
2018-Feb-20 10:30N 37°48' W 122°24'0 0.0
2018-Feb-20 10:00N 37°48' W 122°24'0 0.0
2018-Feb-20 09:30N 37°48' W 122°24'0 0.0
2018-Feb-20 09:00N 37°48' W 122°24'0 0.0
2018-Feb-20 08:30N 37°48' W 122°24'0 0.0
2018-Feb-20 08:00N 37°48' W 122°24'3 6.3
2018-Feb-20 07:30N 37°51' W 122°24'4 8.3
2018-Feb-20 07:00N 37°55' W 122°25'0 0.4
2018-Feb-20 06:30N 37°55' W 122°25'2 4.7
2018-Feb-20 06:00N 37°53' W 122°25'1 1.6
2018-Feb-20 05:30N 37°52' W 122°24'1 2.1
2018-Feb-20 05:01N 37°51' W 122°24'2 4.1
2018-Feb-20 04:30N 37°50' W 122°22'3 5.4
2018-Feb-20 04:00N 37°48' W 122°20'2 3.9
2018-Feb-20 03:30N 37°48' W 122°17'1 2.7
2018-Feb-20 03:00N 37°48' W 122°19'1 1.0
2018-Feb-20 02:30N 37°48' W 122°20'1 1.8
2018-Feb-20 02:00N 37°48' W 122°20'0 0.7
2018-Feb-20 01:30N 37°49' W 122°20'0 0.1
2018-Feb-20 01:01N 37°49' W 122°20'0 0.0
2018-Feb-20 00:30N 37°49' W 122°20'0 0.1
2018-Feb-20 00:00N 37°49' W 122°20'0 0.1
2018-Feb-19 23:30N 37°49' W 122°20'0 0.0
2018-Feb-19 23:00N 37°49' W 122°20'0 0.0
2018-Feb-19 22:30N 37°49' W 122°20'0 0.0
2018-Feb-19 22:00N 37°49' W 122°20'0 0.0
2018-Feb-19 21:30N 37°49' W 122°20'0 0.0
2018-Feb-19 21:00N 37°49' W 122°20'0 0.0
2018-Feb-19 20:30N 37°49' W 122°20'0 0.0
2018-Feb-19 20:00N 37°49' W 122°20'0 0.0
2018-Feb-19 19:30N 37°49' W 122°20'0 0.0
2018-Feb-19 19:00N 37°49' W 122°20'0 0.0
2018-Feb-19 18:30N 37°49' W 122°20'0 0.0
2018-Feb-19 18:00N 37°49' W 122°20'0 0.0
2018-Feb-19 17:30N 37°49' W 122°20'0 0.1
2018-Feb-19 16:59N 37°49' W 122°20'1 1.8
2018-Feb-19 16:30N 37°48' W 122°20'0 0.9
2018-Feb-19 16:00N 37°48' W 122°20'2 4.1
2018-Feb-19 15:30N 37°49' W 122°23'1 1.7
2018-Feb-19 15:00N 37°48' W 122°22'1 2.6
2018-Feb-19 14:30N 37°49' W 122°20'0 0.0
2018-Feb-19 14:00N 37°49' W 122°20'0 0.0
2018-Feb-19 13:30N 37°49' W 122°20'0 0.1
2018-Feb-19 13:00N 37°49' W 122°20'0 0.1
2018-Feb-19 12:30N 37°49' W 122°20'0 0.0
2018-Feb-19 12:00N 37°49' W 122°20'0 0.5
2018-Feb-19 11:31N 37°49' W 122°20'0 0.2
2018-Feb-19 11:00N 37°48' W 122°20'0 0.2
2018-Feb-19 10:30N 37°48' W 122°20'3 5.6
2018-Feb-19 10:00N 37°48' W 122°24'0 0.3
2018-Feb-19 09:30N 37°48' W 122°24'0 0.0
2018-Feb-19 09:00N 37°48' W 122°24'0 0.0
2018-Feb-19 08:30N 37°48' W 122°24'0 0.0
2018-Feb-19 08:00N 37°48' W 122°24'0 0.0
2018-Feb-19 07:30N 37°48' W 122°24'0 0.0
2018-Feb-19 07:00N 37°48' W 122°24'0 0.0
2018-Feb-19 06:30N 37°48' W 122°24'0 0.0
2018-Feb-19 06:00N 37°48' W 122°24'0 0.1
2018-Feb-19 05:30N 37°48' W 122°24'0 0.1
2018-Feb-19 05:00N 37°48' W 122°24'0 0.0
2018-Feb-19 04:30N 37°48' W 122°24'0 0.0
2018-Feb-19 04:00N 37°48' W 122°24'0 0.0
2018-Feb-19 03:30N 37°48' W 122°24'0 0.0
2018-Feb-19 03:00N 37°48' W 122°24'0 0.0
2018-Feb-19 02:30N 37°48' W 122°24'2 3.4
2018-Feb-19 02:00N 37°49' W 122°26'3 6.8
2018-Feb-19 01:30N 37°49' W 122°30'1 1.3
2018-Feb-19 01:00N 37°49' W 122°31'510.0
2018-Feb-19 00:30N 37°51' W 122°25'510.0
2018-Feb-19 00:00N 37°56' W 122°27'510.6
2018-Feb-18 23:30N 38°01' W 122°24'5 9.0
2018-Feb-18 23:00N 38°03' W 122°20'9 0.7
2018-Feb-18 09:50N 38°02' W 122°08'0 0.1
2018-Feb-18 06:34N 38°02' W 122°08'0 0.0
2018-Feb-18 06:16N 38°02' W 122°08'0 0.0
2018-Feb-18 05:51N 38°02' W 122°08'2 1.2
2018-Feb-18 04:20N 38°02' W 122°10'2 5.7
2018-Feb-18 04:00N 38°03' W 122°12'2 0.6
2018-Feb-18 00:47N 38°03' W 122°15'0 0.0
2018-Feb-18 00:15N 38°03' W 122°15'0 0.0
2018-Feb-18 00:00N 38°03' W 122°15'0 0.0
2018-Feb-17 23:18N 38°03' W 122°15'0 0.0
2018-Feb-17 23:00N 38°03' W 122°15'0 0.0
2018-Feb-17 22:26N 38°03' W 122°15'0 0.1
2018-Feb-17 21:56N 38°03' W 122°15'0 0.0
2018-Feb-17 20:10N 38°03' W 122°15'0 0.3
2018-Feb-17 20:00N 38°03' W 122°15'0 0.0
2018-Feb-17 19:30N 38°03' W 122°15'0 0.0
2018-Feb-17 19:00N 38°03' W 122°15'0 0.0
2018-Feb-17 12:03N 38°03' W 122°15'0 0.0
2018-Feb-17 11:47N 38°03' W 122°15'0 0.0
2018-Feb-17 11:25N 38°03' W 122°15'0 0.0
2018-Feb-17 04:01N 38°03' W 122°15'0 0.0
2018-Feb-17 04:00N 38°03' W 122°15'0 0.0
2018-Feb-17 03:29N 38°03' W 122°15'0 0.0
2018-Feb-17 02:50N 38°03' W 122°15'0 0.0
2018-Feb-17 02:29N 38°03' W 122°15'0 0.0
2018-Feb-17 02:00N 38°03' W 122°15'4 8.0
2018-Feb-17 01:29N 38°02' W 122°10'13 2.2
2018-Feb-16 19:37N 38°02' W 121°53'13 1.2
2018-Feb-16 08:41N 38°02' W 122°09'1 0.5
2018-Feb-16 06:45N 38°02' W 122°08'2 1.4
2018-Feb-16 05:28N 38°03' W 122°10'2 4.9
2018-Feb-16 05:00N 38°04' W 122°13'1 2.6
2018-Feb-16 04:30N 38°04' W 122°15'0 0.0
2018-Feb-15 23:58N 38°03' W 122°15'8 8.8
2018-Feb-15 23:06N 38°01' W 122°24'1 9.2
2018-Feb-15 23:00N 38°00' W 122°24'4 8.5
2018-Feb-15 22:30N 37°56' W 122°26'1 1.5
2018-Feb-15 22:00N 37°55' W 122°25'0 0.2
2018-Feb-15 21:30N 37°55' W 122°25'2 3.5
2018-Feb-15 21:00N 37°54' W 122°25'1 2.3
2018-Feb-15 20:30N 37°53' W 122°25'3 6.6
2018-Feb-15 20:00N 37°49' W 122°24'1 2.5
2018-Feb-15 19:30N 37°48' W 122°24'0 0.0
2018-Feb-15 19:00N 37°48' W 122°24'3 5.9
2018-Feb-15 18:30N 37°51' W 122°25'4 8.3
2018-Feb-15 18:00N 37°55' W 122°25'1 1.0
2018-Feb-15 17:30N 37°56' W 122°25'1 1.9
2018-Feb-15 17:00N 37°55' W 122°25'1 2.8
2018-Feb-15 16:30N 37°53' W 122°25'2 4.0
2018-Feb-15 16:00N 37°55' W 122°25'0 0.0
2018-Feb-15 15:30N 37°55' W 122°25'0 0.0
2018-Feb-15 15:00N 37°55' W 122°25'0 0.0
2018-Feb-15 14:30N 37°55' W 122°25'3 5.2
2018-Feb-15 14:00N 37°58' W 122°26'5 9.1
2018-Feb-15 13:29N 38°02' W 122°22'5 9.6
2018-Feb-15 13:00N 38°03' W 122°17'2 3.9
2018-Feb-15 12:30N 38°04' W 122°15'0 0.0
2018-Feb-15 12:00N 38°04' W 122°15'0 0.4
2018-Feb-15 11:30N 38°04' W 122°15'1 1.7
2018-Feb-15 11:00N 38°04' W 122°16'1 1.8
2018-Feb-15 10:30N 38°03' W 122°15'0 0.0
2018-Feb-15 10:00N 38°03' W 122°15'0 0.0
2018-Feb-15 09:30N 38°03' W 122°15'5 3.6
2018-Feb-15 08:03N 38°02' W 122°08'0 2.3
2018-Feb-15 07:59N 38°02' W 122°08'2 1.9
2018-Feb-15 06:58N 38°03' W 122°11'2 5.2
2018-Feb-15 06:30N 38°04' W 122°13'4 8.3
2018-Feb-15 06:00N 38°03' W 122°19'5 9.2
2018-Feb-15 05:27N 38°00' W 122°24'4 9.6
2018-Feb-15 05:00N 37°56' W 122°26'5 9.3
2018-Feb-15 04:30N 37°52' W 122°24'4 7.1
2018-Feb-15 04:01N 37°49' W 122°21'2 3.9
2018-Feb-15 03:30N 37°48' W 122°19'1 1.5
2018-Feb-15 03:01N 37°48' W 122°18'1 1.0
2018-Feb-15 02:31N 37°48' W 122°18'3 5.4
2018-Feb-15 01:59N 37°48' W 122°21'0 0.5
2018-Feb-15 01:30N 37°48' W 122°22'1 1.8
2018-Feb-15 01:00N 37°48' W 122°21'0 0.0
2018-Feb-15 00:30N 37°48' W 122°21'1 2.8
2018-Feb-15 00:00N 37°49' W 122°22'3 6.4
2018-Feb-14 23:30N 37°52' W 122°24'4 8.9
2018-Feb-14 23:00N 37°49' W 122°21'1 1.5
2018-Feb-14 22:30N 37°49' W 122°20'0 0.0
2018-Feb-14 21:59N 37°49' W 122°20'3 5.8
2018-Feb-14 21:30N 37°48' W 122°23'1 1.2
2018-Feb-14 21:00N 37°48' W 122°24'0 0.0
2018-Feb-14 20:30N 37°48' W 122°24'0 0.0
2018-Feb-14 20:00N 37°48' W 122°24'0 0.0
2018-Feb-14 19:30N 37°48' W 122°24'0 0.0
2018-Feb-14 19:00N 37°48' W 122°24'0 0.0
2018-Feb-14 18:30N 37°48' W 122°24'0 0.0
2018-Feb-14 18:00N 37°48' W 122°24'0 0.0
2018-Feb-14 17:30N 37°48' W 122°24'0 0.1
2018-Feb-14 17:00N 37°48' W 122°24'0 0.1
2018-Feb-14 16:30N 37°48' W 122°24'3 5.2
2018-Feb-14 16:00N 37°48' W 122°21'1 2.8
2018-Feb-14 15:30N 37°48' W 122°19'1 1.3
2018-Feb-14 15:00N 37°47' W 122°18'1 1.1
2018-Feb-14 14:31N 37°48' W 122°17'1 2.4
2018-Feb-14 14:00N 37°48' W 122°19'2 4.9
2018-Feb-14 13:30N 37°48' W 122°22'0 0.5
2018-Feb-14 13:00N 37°48' W 122°22'1 2.5
2018-Feb-14 12:30N 37°49' W 122°20'0 0.1
2018-Feb-14 12:00N 37°49' W 122°20'0 0.1
2018-Feb-14 11:30N 37°49' W 122°20'0 0.0
2018-Feb-14 11:00N 37°49' W 122°20'0 0.0
2018-Feb-14 10:30N 37°49' W 122°20'0 0.1
2018-Feb-14 10:00N 37°49' W 122°20'0 0.0
2018-Feb-14 09:30N 37°49' W 122°20'0 0.0
2018-Feb-14 09:00N 37°49' W 122°20'0 0.1
2018-Feb-14 08:30N 37°49' W 122°20'0 0.0
2018-Feb-14 08:00N 37°49' W 122°20'0 0.0
2018-Feb-14 07:30N 37°49' W 122°20'0 0.1
2018-Feb-14 07:00N 37°49' W 122°20'0 0.0
2018-Feb-14 06:30N 37°49' W 122°20'0 0.0
2018-Feb-14 06:00N 37°49' W 122°20'0 0.0
2018-Feb-14 05:30N 37°49' W 122°20'3 6.9
2018-Feb-14 05:00N 37°51' W 122°23'4 8.5
2018-Feb-14 04:30N 37°55' W 122°25'1 1.4
2018-Feb-14 04:01N 37°55' W 122°25'0 0.2
2018-Feb-14 03:30N 37°55' W 122°25'0 0.0
2018-Feb-14 03:00N 37°55' W 122°25'0 0.2
2018-Feb-14 02:31N 37°55' W 122°25'4 7.6
2018-Feb-14 02:01N 37°51' W 122°24'4 7.9
2018-Feb-14 01:30N 37°49' W 122°20'1 1.2
2018-Feb-14 01:00N 37°49' W 122°20'1 1.8
2018-Feb-14 00:30N 37°48' W 122°21'2 3.8
2018-Feb-14 00:00N 37°49' W 122°23'1 2.9
2018-Feb-13 23:30N 37°50' W 122°24'5 9.1
2018-Feb-13 23:00N 37°55' W 122°25'611.4
2018-Feb-13 22:30N 38°00' W 122°24'510.9
2018-Feb-13 22:00N 38°03' W 122°18'  
Track history (hours):
 
Tides and Currents Weather Stations Pressure Air Temp Water Temp Dewpoint Dewpoint Depression Visibility Wind Speed Wind Dir Waves Ship Positions

Valor

Owner: Crowley Marine Services, Seattle, WA. More information available from US FCC via Universal Licensing System and Coast Guard Vessel Documentation Center.

Last reported at 2018-Feb-23 17:30 UTC. Time now 2018-Feb-23 17:57 UTC.
Position N 37°54' W 122°23'.

Length 8 m; draft 5.5 m.

Type: Tug. MMSI: 367301480.

Date/timePositionNaut miles runAvg speedWind from/ knotsBaromVisibWave heightAir tempDewpointWater temp
2018-Feb-23 17:30N 37°54' W 122°23'1 2.4
2018-Feb-23 17:01N 37°55' W 122°22'0 1.0
2018-Feb-23 16:30N 37°54' W 122°22'3 6.2
2018-Feb-23 16:00N 37°55' W 122°25'4 8.7
2018-Feb-23 15:30N 37°51' W 122°25'4 8.5
2018-Feb-23 15:01N 37°49' W 122°30'1 2.2
2018-Feb-23 14:30N 37°49' W 122°31'0 0.4
2018-Feb-23 14:00N 37°49' W 122°31'3 5.7
2018-Feb-23 13:31N 37°49' W 122°28'3 6.1
2018-Feb-23 13:00N 37°48' W 122°24'0 0.0
2018-Feb-23 12:30N 37°48' W 122°24'0 0.0
2018-Feb-23 12:00N 37°48' W 122°24'0 0.0
2018-Feb-23 11:30N 37°48' W 122°24'0 0.0
2018-Feb-23 11:01N 37°48' W 122°24'0 0.0
2018-Feb-23 10:31N 37°48' W 122°24'0 0.0
2018-Feb-23 10:00N 37°48' W 122°24'0 0.0
2018-Feb-23 09:31N 37°48' W 122°24'3 5.5
2018-Feb-23 09:00N 37°51' W 122°24'5 9.0
2018-Feb-23 08:30N 37°55' W 122°25'1 1.2
2018-Feb-23 08:01N 37°55' W 122°25'0 0.0
2018-Feb-23 07:30N 37°55' W 122°25'0 0.2
2018-Feb-23 07:01N 37°55' W 122°25'0 0.0
2018-Feb-23 06:31N 37°55' W 122°25'0 0.0
2018-Feb-23 06:01N 37°55' W 122°25'0 0.0
2018-Feb-23 05:30N 37°55' W 122°25'0 0.0
2018-Feb-23 05:01N 37°55' W 122°25'0 0.0
2018-Feb-23 04:30N 37°55' W 122°25'0 0.0
2018-Feb-23 04:00N 37°55' W 122°25'0 0.0
2018-Feb-23 03:30N 37°55' W 122°25'0 0.0
2018-Feb-23 03:00N 37°55' W 122°25'0 0.0
2018-Feb-23 02:30N 37°55' W 122°25'0 0.0
2018-Feb-23 02:01N 37°55' W 122°25'0 0.0
2018-Feb-23 01:30N 37°55' W 122°25'0 0.0
2018-Feb-23 01:00N 37°55' W 122°25'0 0.0
2018-Feb-23 00:30N 37°55' W 122°25'1 1.5
2018-Feb-23 00:01N 37°55' W 122°25'1 1.4
2018-Feb-22 23:30N 37°56' W 122°25'0 0.3
2018-Feb-22 23:00N 37°55' W 122°25'0 0.8
2018-Feb-22 22:30N 37°55' W 122°25'0 0.0
2018-Feb-22 22:00N 37°55' W 122°25'0 0.0
2018-Feb-22 21:31N 37°55' W 122°25'2 4.4
2018-Feb-22 21:00N 37°55' W 122°22'0 0.3
2018-Feb-22 20:30N 37°55' W 122°22'0 0.6
2018-Feb-22 20:00N 37°55' W 122°22'2 3.7
2018-Feb-22 19:30N 37°54' W 122°24'0 0.6
2018-Feb-22 19:01N 37°55' W 122°24'2 4.1
2018-Feb-22 18:30N 37°55' W 122°22'0 0.0
2018-Feb-22 18:01N 37°55' W 122°22'0 0.0
2018-Feb-22 17:31N 37°55' W 122°22'0 0.0
2018-Feb-22 17:01N 37°55' W 122°22'0 0.1
2018-Feb-22 16:31N 37°55' W 122°22'0 0.1
2018-Feb-22 16:01N 37°55' W 122°22'0 0.1
2018-Feb-22 15:30N 37°55' W 122°22'0 0.0
2018-Feb-22 15:00N 37°55' W 122°22'0 0.0
2018-Feb-22 14:31N 37°55' W 122°22'0 0.0
2018-Feb-22 14:00N 37°55' W 122°22'0 0.1
2018-Feb-22 13:30N 37°55' W 122°22'0 0.0
2018-Feb-22 13:00N 37°55' W 122°22'0 0.0
2018-Feb-22 12:31N 37°55' W 122°22'3 5.4
2018-Feb-22 12:00N 37°56' W 122°25'0 0.0
2018-Feb-22 11:31N 37°56' W 122°25'1 1.2
2018-Feb-22 11:01N 37°55' W 122°25'1 2.9
2018-Feb-22 10:30N 37°54' W 122°25'3 5.7
2018-Feb-22 10:00N 37°55' W 122°22'0 0.0
2018-Feb-22 09:30N 37°55' W 122°22'0 0.0
2018-Feb-22 09:01N 37°55' W 122°22'0 0.0
2018-Feb-22 08:31N 37°55' W 122°22'0 0.0
2018-Feb-22 08:00N 37°55' W 122°22'0 0.0
2018-Feb-22 07:30N 37°55' W 122°22'0 0.0
2018-Feb-22 07:00N 37°55' W 122°22'0 0.1
2018-Feb-22 06:31N 37°55' W 122°22'0 0.1
2018-Feb-22 06:00N 37°55' W 122°22'0 0.0
2018-Feb-22 05:30N 37°55' W 122°22'0 0.0
2018-Feb-22 05:01N 37°55' W 122°22'0 0.0
2018-Feb-22 04:30N 37°55' W 122°22'0 0.0
2018-Feb-22 04:01N 37°55' W 122°22'0 0.5
2018-Feb-22 03:30N 37°54' W 122°22'1 1.9
2018-Feb-22 03:00N 37°54' W 122°23'2 4.2
2018-Feb-22 02:31N 37°53' W 122°25'0 0.8
2018-Feb-22 02:00N 37°53' W 122°25'3 6.6
2018-Feb-22 01:30N 37°57' W 122°26'4 8.0
2018-Feb-22 01:00N 38°00' W 122°24'4 7.2
2018-Feb-22 00:30N 38°03' W 122°20'4 2.4
2018-Feb-21 23:04N 38°03' W 122°16'0 0.3
2018-Feb-21 22:49N 38°03' W 122°16'2 5.0
2018-Feb-21 22:27N 38°03' W 122°18'4 7.1
2018-Feb-21 21:55N 38°02' W 122°22'3 6.3
2018-Feb-21 21:30N 38°00' W 122°25'4 7.3
2018-Feb-21 21:00N 37°57' W 122°27'5 9.8
2018-Feb-21 20:30N 37°52' W 122°25'510.6
2018-Feb-21 20:01N 37°47' W 122°23'2 4.8
2018-Feb-21 19:30N 37°45' W 122°21'0 0.2
2018-Feb-21 19:00N 37°45' W 122°21'4 7.5
2018-Feb-21 18:30N 37°48' W 122°24'0 0.3
2018-Feb-21 18:01N 37°48' W 122°24'0 0.0
2018-Feb-21 17:31N 37°48' W 122°24'0 0.0
2018-Feb-21 17:01N 37°48' W 122°24'0 0.0
2018-Feb-21 16:30N 37°48' W 122°24'0 0.0
2018-Feb-21 16:00N 37°48' W 122°24'0 0.0
2018-Feb-21 15:31N 37°48' W 122°24'0 0.0
2018-Feb-21 15:00N 37°48' W 122°24'0 0.0
2018-Feb-21 14:30N 37°48' W 122°24'0 0.0
2018-Feb-21 14:01N 37°48' W 122°24'0 0.0
2018-Feb-21 13:31N 37°48' W 122°24'0 0.0
2018-Feb-21 13:01N 37°48' W 122°24'0 0.0
2018-Feb-21 12:30N 37°48' W 122°24'0 0.0
2018-Feb-21 12:00N 37°48' W 122°24'0 0.0
2018-Feb-21 11:31N 37°48' W 122°24'0 0.0
2018-Feb-21 11:01N 37°48' W 122°24'0 0.0
2018-Feb-21 10:30N 37°48' W 122°24'2 4.3
2018-Feb-21 10:00N 37°47' W 122°21'3 6.6
2018-Feb-21 09:31N 37°49' W 122°25'4 8.5
2018-Feb-21 09:00N 37°48' W 122°30'1 1.2
2018-Feb-21 08:30N 37°48' W 122°30'2 4.1
2018-Feb-21 08:00N 37°49' W 122°27'3 5.3
2018-Feb-21 07:30N 37°48' W 122°24'0 0.0
2018-Feb-21 07:00N 37°48' W 122°24'0 0.0
2018-Feb-21 06:30N 37°48' W 122°24'0 0.0
2018-Feb-21 06:00N 37°48' W 122°24'0 0.0
2018-Feb-21 05:30N 37°48' W 122°24'0 0.0
2018-Feb-21 05:00N 37°48' W 122°24'0 0.0
2018-Feb-21 04:30N 37°48' W 122°24'0 0.0
2018-Feb-21 04:00N 37°48' W 122°24'0 0.0
2018-Feb-21 03:30N 37°48' W 122°24'0 0.0
2018-Feb-21 03:00N 37°48' W 122°24'0 0.0
2018-Feb-21 02:30N 37°48' W 122°24'0 0.0
2018-Feb-21 02:00N 37°48' W 122°24'0 0.0
2018-Feb-21 01:30N 37°48' W 122°24'4 7.9
2018-Feb-21 01:00N 37°52' W 122°25'5 9.2
2018-Feb-21 00:30N 37°57' W 122°26'4 8.6
2018-Feb-21 00:00N 38°01' W 122°24'4 8.2
2018-Feb-20 23:30N 38°03' W 122°19'3 2.3
2018-Feb-20 22:14N 38°03' W 122°16'1 3.9
2018-Feb-20 21:54N 38°03' W 122°17'1 3.6
2018-Feb-20 21:30N 38°03' W 122°19'4 7.8
2018-Feb-20 20:58N 38°01' W 122°24'4 9.3
2018-Feb-20 20:30N 37°57' W 122°26'5 9.4
2018-Feb-20 20:00N 37°52' W 122°24'4 7.5
2018-Feb-20 19:30N 37°49' W 122°24'0 0.9
2018-Feb-20 19:00N 37°48' W 122°24'0 0.0
2018-Feb-20 18:30N 37°48' W 122°24'0 0.0
2018-Feb-20 18:00N 37°48' W 122°24'0 0.0
2018-Feb-20 17:30N 37°48' W 122°24'0 0.0
2018-Feb-20 17:00N 37°48' W 122°24'0 0.0
2018-Feb-20 16:30N 37°48' W 122°24'0 0.0
2018-Feb-20 16:00N 37°48' W 122°24'0 0.0
2018-Feb-20 15:30N 37°48' W 122°24'0 0.0
2018-Feb-20 15:00N 37°48' W 122°24'4 7.1
2018-Feb-20 14:30N 37°48' W 122°19'1 1.2
2018-Feb-20 14:00N 37°48' W 122°19'2 4.1
2018-Feb-20 13:30N 37°48' W 122°21'2 4.2
2018-Feb-20 13:00N 37°48' W 122°24'0 0.0
2018-Feb-20 12:30N 37°48' W 122°24'0 0.0
2018-Feb-20 12:00N 37°48' W 122°24'0 0.0
2018-Feb-20 11:30N 37°48' W 122°24'0 0.0
2018-Feb-20 11:00N 37°48' W 122°24'0 0.0
2018-Feb-20 10:30N 37°48' W 122°24'0 0.0
2018-Feb-20 10:00N 37°48' W 122°24'0 0.0
2018-Feb-20 09:30N 37°48' W 122°24'0 0.0
2018-Feb-20 09:00N 37°48' W 122°24'0 0.0
2018-Feb-20 08:30N 37°48' W 122°24'0 0.0
2018-Feb-20 08:00N 37°48' W 122°24'3 6.3
2018-Feb-20 07:30N 37°51' W 122°24'4 8.3
2018-Feb-20 07:00N 37°55' W 122°25'0 0.4
2018-Feb-20 06:30N 37°55' W 122°25'2 4.7
2018-Feb-20 06:00N 37°53' W 122°25'1 1.6
2018-Feb-20 05:30N 37°52' W 122°24'1 2.1
2018-Feb-20 05:01N 37°51' W 122°24'2 4.1
2018-Feb-20 04:30N 37°50' W 122°22'3 5.4
2018-Feb-20 04:00N 37°48' W 122°20'2 3.9
2018-Feb-20 03:30N 37°48' W 122°17'1 2.7
2018-Feb-20 03:00N 37°48' W 122°19'1 1.0
2018-Feb-20 02:30N 37°48' W 122°20'1 1.8
2018-Feb-20 02:00N 37°48' W 122°20'0 0.7
2018-Feb-20 01:30N 37°49' W 122°20'0 0.1
2018-Feb-20 01:01N 37°49' W 122°20'0 0.0
2018-Feb-20 00:30N 37°49' W 122°20'0 0.1
2018-Feb-20 00:00N 37°49' W 122°20'0 0.1
2018-Feb-19 23:30N 37°49' W 122°20'0 0.0
2018-Feb-19 23:00N 37°49' W 122°20'0 0.0
2018-Feb-19 22:30N 37°49' W 122°20'0 0.0
2018-Feb-19 22:00N 37°49' W 122°20'0 0.0
2018-Feb-19 21:30N 37°49' W 122°20'0 0.0
2018-Feb-19 21:00N 37°49' W 122°20'0 0.0
2018-Feb-19 20:30N 37°49' W 122°20'0 0.0
2018-Feb-19 20:00N 37°49' W 122°20'0 0.0
2018-Feb-19 19:30N 37°49' W 122°20'0 0.0
2018-Feb-19 19:00N 37°49' W 122°20'0 0.0
2018-Feb-19 18:30N 37°49' W 122°20'0 0.0
2018-Feb-19 18:00N 37°49' W 122°20'0 0.0
2018-Feb-19 17:30N 37°49' W 122°20'0 0.1
2018-Feb-19 16:59N 37°49' W 122°20'1 1.8
2018-Feb-19 16:30N 37°48' W 122°20'0 0.9
2018-Feb-19 16:00N 37°48' W 122°20'2 4.1
2018-Feb-19 15:30N 37°49' W 122°23'1 1.7
2018-Feb-19 15:00N 37°48' W 122°22'1 2.6
2018-Feb-19 14:30N 37°49' W 122°20'0 0.0
2018-Feb-19 14:00N 37°49' W 122°20'0 0.0
2018-Feb-19 13:30N 37°49' W 122°20'0 0.1
2018-Feb-19 13:00N 37°49' W 122°20'0 0.1
2018-Feb-19 12:30N 37°49' W 122°20'0 0.0
2018-Feb-19 12:00N 37°49' W 122°20'0 0.5
2018-Feb-19 11:31N 37°49' W 122°20'0 0.2
2018-Feb-19 11:00N 37°48' W 122°20'0 0.2
2018-Feb-19 10:30N 37°48' W 122°20'3 5.6
2018-Feb-19 10:00N 37°48' W 122°24'0 0.3
2018-Feb-19 09:30N 37°48' W 122°24'0 0.0
2018-Feb-19 09:00N 37°48' W 122°24'0 0.0
2018-Feb-19 08:30N 37°48' W 122°24'0 0.0
2018-Feb-19 08:00N 37°48' W 122°24'0 0.0
2018-Feb-19 07:30N 37°48' W 122°24'0 0.0
2018-Feb-19 07:00N 37°48' W 122°24'0 0.0
2018-Feb-19 06:30N 37°48' W 122°24'0 0.0
2018-Feb-19 06:00N 37°48' W 122°24'0 0.1
2018-Feb-19 05:30N 37°48' W 122°24'0 0.1
2018-Feb-19 05:00N 37°48' W 122°24'0 0.0
2018-Feb-19 04:30N 37°48' W 122°24'0 0.0
2018-Feb-19 04:00N 37°48' W 122°24'0 0.0
2018-Feb-19 03:30N 37°48' W 122°24'0 0.0
2018-Feb-19 03:00N 37°48' W 122°24'0 0.0
2018-Feb-19 02:30N 37°48' W 122°24'2 3.4
2018-Feb-19 02:00N 37°49' W 122°26'3 6.8
2018-Feb-19 01:30N 37°49' W 122°30'1 1.3
2018-Feb-19 01:00N 37°49' W 122°31'510.0
2018-Feb-19 00:30N 37°51' W 122°25'510.0
2018-Feb-19 00:00N 37°56' W 122°27'510.6
2018-Feb-18 23:30N 38°01' W 122°24'5 9.0
2018-Feb-18 23:00N 38°03' W 122°20'9 0.7
2018-Feb-18 09:50N 38°02' W 122°08'0 0.1
2018-Feb-18 06:34N 38°02' W 122°08'0 0.0
2018-Feb-18 06:16N 38°02' W 122°08'0 0.0
2018-Feb-18 05:51N 38°02' W 122°08'2 1.2
2018-Feb-18 04:20N 38°02' W 122°10'2 5.7
2018-Feb-18 04:00N 38°03' W 122°12'2 0.6
2018-Feb-18 00:47N 38°03' W 122°15'0 0.0
2018-Feb-18 00:15N 38°03' W 122°15'0 0.0
2018-Feb-18 00:00N 38°03' W 122°15'0 0.0
2018-Feb-17 23:18N 38°03' W 122°15'0 0.0
2018-Feb-17 23:00N 38°03' W 122°15'0 0.0
2018-Feb-17 22:26N 38°03' W 122°15'0 0.1
2018-Feb-17 21:56N 38°03' W 122°15'0 0.0
2018-Feb-17 20:10N 38°03' W 122°15'0 0.3
2018-Feb-17 20:00N 38°03' W 122°15'0 0.0
2018-Feb-17 19:30N 38°03' W 122°15'0 0.0
2018-Feb-17 19:00N 38°03' W 122°15'0 0.0
2018-Feb-17 12:03N 38°03' W 122°15'0 0.0
2018-Feb-17 11:47N 38°03' W 122°15'0 0.0
2018-Feb-17 11:25N 38°03' W 122°15'0 0.0
2018-Feb-17 04:01N 38°03' W 122°15'0 0.0
2018-Feb-17 04:00N 38°03' W 122°15'0 0.0
2018-Feb-17 03:29N 38°03' W 122°15'0 0.0
2018-Feb-17 02:50N 38°03' W 122°15'0 0.0
2018-Feb-17 02:29N 38°03' W 122°15'0 0.0
2018-Feb-17 02:00N 38°03' W 122°15'4 8.0
2018-Feb-17 01:29N 38°02' W 122°10'13 2.2
2018-Feb-16 19:37N 38°02' W 121°53'13 1.2
2018-Feb-16 08:41N 38°02' W 122°09'1 0.5
2018-Feb-16 06:45N 38°02' W 122°08'2 1.4
2018-Feb-16 05:28N 38°03' W 122°10'2 4.9
2018-Feb-16 05:00N 38°04' W 122°13'1 2.6
2018-Feb-16 04:30N 38°04' W 122°15'0 0.0
2018-Feb-15 23:58N 38°03' W 122°15'8 8.8
2018-Feb-15 23:06N 38°01' W 122°24'1 9.2
2018-Feb-15 23:00N 38°00' W 122°24'4 8.5
2018-Feb-15 22:30N 37°56' W 122°26'1 1.5
2018-Feb-15 22:00N 37°55' W 122°25'0 0.2
2018-Feb-15 21:30N 37°55' W 122°25'2 3.5
2018-Feb-15 21:00N 37°54' W 122°25'1 2.3
2018-Feb-15 20:30N 37°53' W 122°25'3 6.6
2018-Feb-15 20:00N 37°49' W 122°24'1 2.5
2018-Feb-15 19:30N 37°48' W 122°24'0 0.0
2018-Feb-15 19:00N 37°48' W 122°24'3 5.9
2018-Feb-15 18:30N 37°51' W 122°25'4 8.3
2018-Feb-15 18:00N 37°55' W 122°25'1 1.0
2018-Feb-15 17:30N 37°56' W 122°25'1 1.9
2018-Feb-15 17:00N 37°55' W 122°25'1 2.8
2018-Feb-15 16:30N 37°53' W 122°25'2 4.0
2018-Feb-15 16:00N 37°55' W 122°25'0 0.0
2018-Feb-15 15:30N 37°55' W 122°25'0 0.0
2018-Feb-15 15:00N 37°55' W 122°25'0 0.0
2018-Feb-15 14:30N 37°55' W 122°25'3 5.2
2018-Feb-15 14:00N 37°58' W 122°26'5 9.1
2018-Feb-15 13:29N 38°02' W 122°22'5 9.6
2018-Feb-15 13:00N 38°03' W 122°17'2 3.9
2018-Feb-15 12:30N 38°04' W 122°15'0 0.0
2018-Feb-15 12:00N 38°04' W 122°15'0 0.4
2018-Feb-15 11:30N 38°04' W 122°15'1 1.7
2018-Feb-15 11:00N 38°04' W 122°16'1 1.8
2018-Feb-15 10:30N 38°03' W 122°15'0 0.0
2018-Feb-15 10:00N 38°03' W 122°15'0 0.0
2018-Feb-15 09:30N 38°03' W 122°15'5 3.6
2018-Feb-15 08:03N 38°02' W 122°08'0 2.3
2018-Feb-15 07:59N 38°02' W 122°08'2 1.9
2018-Feb-15 06:58N 38°03' W 122°11'2 5.2
2018-Feb-15 06:30N 38°04' W 122°13'4 8.3
2018-Feb-15 06:00N 38°03' W 122°19'5 9.2
2018-Feb-15 05:27N 38°00' W 122°24'4 9.6
2018-Feb-15 05:00N 37°56' W 122°26'5 9.3
2018-Feb-15 04:30N 37°52' W 122°24'4 7.1
2018-Feb-15 04:01N 37°49' W 122°21'2 3.9
2018-Feb-15 03:30N 37°48' W 122°19'1 1.5
2018-Feb-15 03:01N 37°48' W 122°18'1 1.0
2018-Feb-15 02:31N 37°48' W 122°18'3 5.4
2018-Feb-15 01:59N 37°48' W 122°21'0 0.5
2018-Feb-15 01:30N 37°48' W 122°22'1 1.8
2018-Feb-15 01:00N 37°48' W 122°21'0 0.0
2018-Feb-15 00:30N 37°48' W 122°21'1 2.8
2018-Feb-15 00:00N 37°49' W 122°22'3 6.4
2018-Feb-14 23:30N 37°52' W 122°24'4 8.9
2018-Feb-14 23:00N 37°49' W 122°21'1 1.5
2018-Feb-14 22:30N 37°49' W 122°20'0 0.0
2018-Feb-14 21:59N 37°49' W 122°20'3 5.8
2018-Feb-14 21:30N 37°48' W 122°23'1 1.2
2018-Feb-14 21:00N 37°48' W 122°24'0 0.0
2018-Feb-14 20:30N 37°48' W 122°24'0 0.0
2018-Feb-14 20:00N 37°48' W 122°24'0 0.0
2018-Feb-14 19:30N 37°48' W 122°24'0 0.0
2018-Feb-14 19:00N 37°48' W 122°24'0 0.0
2018-Feb-14 18:30N 37°48' W 122°24'0 0.0
2018-Feb-14 18:00N 37°48' W 122°24'0 0.0
2018-Feb-14 17:30N 37°48' W 122°24'0 0.1
2018-Feb-14 17:00N 37°48' W 122°24'0 0.1
2018-Feb-14 16:30N 37°48' W 122°24'3 5.2
2018-Feb-14 16:00N 37°48' W 122°21'1 2.8
2018-Feb-14 15:30N 37°48' W 122°19'1 1.3
2018-Feb-14 15:00N 37°47' W 122°18'1 1.1
2018-Feb-14 14:31N 37°48' W 122°17'1 2.4
2018-Feb-14 14:00N 37°48' W 122°19'2 4.9
2018-Feb-14 13:30N 37°48' W 122°22'0 0.5
2018-Feb-14 13:00N 37°48' W 122°22'1 2.5
2018-Feb-14 12:30N 37°49' W 122°20'0 0.1
2018-Feb-14 12:00N 37°49' W 122°20'0 0.1
2018-Feb-14 11:30N 37°49' W 122°20'0 0.0
2018-Feb-14 11:00N 37°49' W 122°20'0 0.0
2018-Feb-14 10:30N 37°49' W 122°20'0 0.1
2018-Feb-14 10:00N 37°49' W 122°20'0 0.0
2018-Feb-14 09:30N 37°49' W 122°20'0 0.0
2018-Feb-14 09:00N 37°49' W 122°20'0 0.1
2018-Feb-14 08:30N 37°49' W 122°20'0 0.0
2018-Feb-14 08:00N 37°49' W 122°20'0 0.0
2018-Feb-14 07:30N 37°49' W 122°20'0 0.1
2018-Feb-14 07:00N 37°49' W 122°20'0 0.0
2018-Feb-14 06:30N 37°49' W 122°20'0 0.0
2018-Feb-14 06:00N 37°49' W 122°20'0 0.0
2018-Feb-14 05:30N 37°49' W 122°20'3 6.9
2018-Feb-14 05:00N 37°51' W 122°23'4 8.5
2018-Feb-14 04:30N 37°55' W 122°25'1 1.4
2018-Feb-14 04:01N 37°55' W 122°25'0 0.2
2018-Feb-14 03:30N 37°55' W 122°25'0 0.0
2018-Feb-14 03:00N 37°55' W 122°25'0 0.2
2018-Feb-14 02:31N 37°55' W 122°25'4 7.6
2018-Feb-14 02:01N 37°51' W 122°24'4 7.9
2018-Feb-14 01:30N 37°49' W 122°20'1 1.2
2018-Feb-14 01:00N 37°49' W 122°20'1 1.8
2018-Feb-14 00:30N 37°48' W 122°21'2 3.8
2018-Feb-14 00:00N 37°49' W 122°23'1 2.9
2018-Feb-13 23:30N 37°50' W 122°24'5 9.1
2018-Feb-13 23:00N 37°55' W 122°25'611.4
2018-Feb-13 22:30N 38°00' W 122°24'510.9
2018-Feb-13 22:00N 38°03' W 122°18'  

Dump ship's entire track history